M I D A S
Marine Information and Data Acquisition System
Tripno 837 of the Zeeleeuw from 2005-01-13 07:08:01 to 2005-01-13 17:56:54
Back to CruiseResearch ActivitiesStationsMapUnderway DataData graphs

EquipmentUnitsComment
TimeDGPSUTC
LatitudeDGPSDM.mWGS84
LongitudeDGPSDM.mWGS84
HeadingGyrodeg 
SOGDGPSknotsSpeed over ground
COGDGPSdegCourse over ground
DepthEcho soundermeters200 kHz
Missing or incorrect values are displayed as -999
Navigation data collected by the RV Zeeleeuw from 2005-01-13 07:08:44 to 2005-01-13 18:06:43
Time Latitude Longitude Heading SOG COG Depth
2005-01-13 07:09:49 51°13.614 2°56.04 121.7 4 299 -999
2005-01-13 07:10:49 51°13.652 2°55.931 117.8 5 297 -999
2005-01-13 07:11:49 51°13.675 2°55.797 96.9 5.1 276 -999
2005-01-13 07:12:49 51°13.689 2°55.756 43.1 3.1 34 13.2
2005-01-13 07:13:49 51°13.701 2°55.76 358.8 0.3 317 -999
2005-01-13 07:14:49 51°13.763 2°55.693 329.7 6.5 326 10.1
2005-01-13 07:15:49 51°13.886 2°55.589 339.6 9.1 338 10.3
2005-01-13 07:16:49 51°14.028 2°55.488 340.6 9.5 337 10
2005-01-13 07:17:49 51°14.173 2°55.377 334.5 9.8 330 10.5
2005-01-13 07:18:49 51°14.294 2°55.203 315.5 9.9 312 10.3
2005-01-13 07:19:49 51°14.404 2°55.017 319.4 9.1 316 10.9
2005-01-13 07:20:49 51°14.498 2°54.881 328.7 7.8 321 9.9
2005-01-13 07:21:49 51°14.637 2°54.72 334.2 11.4 324 9.5
2005-01-13 07:22:49 51°14.807 2°54.534 333.8 12.6 326 9.2
2005-01-13 07:23:49 51°14.981 2°54.348 333.8 12.4 326 7.9
2005-01-13 07:24:49 51°15.156 2°54.157 333.6 13.1 325 8.6
2005-01-13 07:25:49 51°15.334 2°53.968 336.5 12 328 8.6
2005-01-13 07:26:49 51°15.508 2°53.777 333.8 13.1 325 10.1
2005-01-13 07:27:49 51°15.684 2°53.589 334.6 12.8 327 10.8
2005-01-13 07:28:49 51°15.868 2°53.421 343.4 12.7 336 10.9
2005-01-13 07:29:49 51°16.058 2°53.284 344.5 12.4 335 11.3
2005-01-13 07:30:49 51°16.251 2°53.147 344.2 12.7 336 12.2
2005-01-13 07:31:49 51°16.446 2°53.016 345.7 12.1 340 11.5
2005-01-13 07:32:49 51°16.629 2°52.892 344.9 11.9 339 11.4
2005-01-13 07:33:49 51°16.815 2°52.771 344.8 12.2 338 9.8
2005-01-13 07:34:49 51°17.01 2°52.64 343.3 12.6 336 10
2005-01-13 07:35:49 51°17.201 2°52.511 344.7 12 338 9.2
2005-01-13 07:36:49 51°17.387 2°52.4 348.7 12.5 342 9.9
2005-01-13 07:37:49 51°17.586 2°52.325 353.2 12.6 346 10.1
2005-01-13 07:38:49 51°17.79 2°52.279 359.4 12.8 354 9.9
2005-01-13 07:39:49 51°17.997 2°52.232 358.6 12.4 353 9.8
2005-01-13 07:40:49 51°18.196 2°52.2 359.7 12.1 351 10
2005-01-13 07:41:49 51°18.4 2°52.255 20.8 12.7 14 10.7
2005-01-13 07:42:49 51°18.6 2°52.345 24.2 12.8 15 11.6
2005-01-13 07:43:49 51°18.803 2°52.446 26.1 12.9 19 12.2
2005-01-13 07:44:49 51°18.998 2°52.572 28.9 12.7 15 12.3
2005-01-13 07:45:49 51°19.19 2°52.704 29 12.5 20 13
2005-01-13 07:46:49 51°19.386 2°52.833 29.3 12.5 22 13.8
2005-01-13 07:47:49 51°19.58 2°52.961 27.9 12.6 19 14.4
2005-01-13 07:48:49 51°19.776 2°53.08 27.1 12.6 21 14.9
2005-01-13 07:49:49 51°19.977 2°53.177 25.7 12.7 18 15.3
2005-01-13 07:50:49 51°20.178 2°53.281 25.8 12.8 17 15.7
2005-01-13 07:51:49 51°20.38 2°53.378 26.2 12.5 22 15.8
2005-01-13 07:52:49 51°20.578 2°53.481 24.3 12.2 18 16
2005-01-13 07:53:49 51°20.688 2°53.485 2.1 4.3 358 16.1
2005-01-13 07:54:49 51°20.713 2°53.472 346.6 0.6 334 16.5
2005-01-13 07:55:49 51°20.713 2°53.465 350.7 0.3 237 16.6
2005-01-13 07:56:49 51°20.706 2°53.466 11.8 0.8 171 15.6
2005-01-13 07:57:49 51°20.733 2°53.48 18.2 5.3 9 17
2005-01-13 07:58:49 51°20.893 2°53.442 0.1 11.3 353 15.5
2005-01-13 07:59:49 51°21.096 2°53.441 13.6 12.5 4 16.4
2005-01-13 08:00:49 51°21.304 2°53.466 14.2 12.6 3 15.9
2005-01-13 08:01:49 51°21.512 2°53.498 14 12.4 4 15.8
2005-01-13 08:02:49 51°21.716 2°53.538 15.8 12.1 8 15.7
2005-01-13 08:03:49 51°21.923 2°53.586 16.8 12.4 10 18.6
2005-01-13 08:04:49 51°22.128 2°53.629 13.7 12.8 2 19
2005-01-13 08:05:49 51°22.335 2°53.675 15.5 12.4 8 21.7
2005-01-13 08:06:49 51°22.54 2°53.731 17.6 12.4 7 22.8
2005-01-13 08:07:49 51°22.736 2°53.839 29.2 12.2 23 22.3
2005-01-13 08:08:49 51°22.923 2°53.973 30.8 12.4 23 16.7
2005-01-13 08:09:49 51°23.104 2°54.134 36.4 12.7 34 21.2
2005-01-13 08:10:49 51°23.286 2°54.288 37 12.6 30 19.9
2005-01-13 08:11:49 51°23.467 2°54.447 34.6 12.4 26 19.7
2005-01-13 08:12:49 51°23.644 2°54.617 39.6 12.8 38 19.4
2005-01-13 08:13:49 51°23.815 2°54.808 40.1 12.7 37 19.2
2005-01-13 08:14:49 51°23.987 2°54.986 44.2 12.6 40 21.1
2005-01-13 08:15:49 51°24.158 2°55.167 41 12.2 37 20.5
2005-01-13 08:16:49 51°24.326 2°55.352 42.4 12.4 38 22.5
2005-01-13 08:17:49 51°24.487 2°55.559 44 12.3 41 23.8
2005-01-13 08:18:49 51°24.644 2°55.766 45.5 12.5 33 22.9
2005-01-13 08:19:49 51°24.802 2°55.969 43 12.4 32 23.5
2005-01-13 08:20:49 51°24.965 2°56.175 44.7 12.8 37 24.6
2005-01-13 08:21:49 51°25.124 2°56.376 45.7 11.9 45 24.4
2005-01-13 08:22:49 51°25.282 2°56.581 42 12.1 40 24.4
2005-01-13 08:23:49 51°25.449 2°56.777 40.1 12.7 30 22.8
2005-01-13 08:24:49 51°25.616 2°56.958 40.9 12.6 37 21.3
2005-01-13 08:25:49 51°25.786 2°57.137 40.6 11.9 38 19.2
2005-01-13 08:26:49 51°25.953 2°57.321 38.4 12 26 17.1
2005-01-13 08:27:49 51°26.122 2°57.5 39.1 12 37 17.1
2005-01-13 08:28:49 51°26.29 2°57.684 38.9 12 35 13.6
2005-01-13 08:29:49 51°26.458 2°57.869 35.8 12.7 44 13.2
2005-01-13 08:30:49 51°26.624 2°58.051 37.6 11.9 31 17.4
2005-01-13 08:31:49 51°26.793 2°58.233 36.1 11.9 30 13.5
2005-01-13 08:32:49 51°26.951 2°58.436 44.9 12.7 38 17
2005-01-13 08:33:49 51°27.104 2°58.647 44.2 12.1 39 17.4
2005-01-13 08:34:49 51°27.259 2°58.856 44.7 11.6 41 15.4
2005-01-13 08:35:49 51°27.409 2°59.069 48.2 12.2 41 19.2
2005-01-13 08:36:49 51°27.537 2°59.314 53.9 12.4 38 19.9
2005-01-13 08:37:49 51°27.666 2°59.556 54.1 12.1 50 17.7
2005-01-13 08:38:49 51°27.793 2°59.804 56.2 12.2 44 18.5
2005-01-13 08:39:49 51°27.916 3°0.056 54.1 12 49 19
2005-01-13 08:40:49 51°28.03 3°0.314 55.7 11.6 59 21.3
2005-01-13 08:41:49 51°28.147 3°0.572 53.5 11.7 54 20.5
2005-01-13 08:42:49 51°28.268 3°0.827 52.6 12.8 47 21
2005-01-13 08:43:49 51°28.382 3°1.089 58.4 11.9 55 21.2
2005-01-13 08:44:49 51°28.503 3°1.343 53 12.2 57 21.5
2005-01-13 08:45:49 51°28.62 3°1.599 56.3 11.2 64 22.1
2005-01-13 08:46:49 51°28.739 3°1.858 56.5 12.6 60 22.2
2005-01-13 08:47:49 51°28.86 3°2.11 56.3 12.3 48 21.8
2005-01-13 08:48:49 51°28.979 3°2.366 54.9 12 49 22.4
2005-01-13 08:49:49 51°29.1 3°2.62 57.2 12.5 52 22.7
2005-01-13 08:50:49 51°29.219 3°2.879 52.9 11.8 52 22.7
2005-01-13 08:51:49 51°29.335 3°3.141 52.9 11.6 55 22.6
2005-01-13 08:52:49 51°29.46 3°3.398 54.2 12.1 47 22.8
2005-01-13 08:53:49 51°29.589 3°3.644 53.2 12 48 22.9
2005-01-13 08:54:49 51°29.708 3°3.902 57.8 12.1 44 22.6
2005-01-13 08:55:49 51°29.821 3°4.158 57.1 11.5 55 21.3
2005-01-13 08:56:49 51°29.941 3°4.412 55.2 12.1 48 21.5
2005-01-13 08:57:49 51°30.048 3°4.675 58.7 11.3 64 21.1
2005-01-13 08:58:49 51°30.169 3°4.928 56.1 12.4 55 20.3
2005-01-13 08:59:49 51°30.287 3°5.183 57.7 12.3 61 22.9
2005-01-13 09:00:49 51°30.402 3°5.445 53.2 13.1 55 22.6
2005-01-13 09:01:49 51°30.528 3°5.694 54 12.4 60 22.7
2005-01-13 09:02:49 51°30.644 3°5.954 58.8 12.4 66 21.9
2005-01-13 09:03:49 51°30.765 3°6.209 53.7 12.4 49 23.3
2005-01-13 09:04:49 51°30.884 3°6.469 57.3 12.1 53 23.2
2005-01-13 09:05:49 51°30.997 3°6.735 53.9 12.5 53 23
2005-01-13 09:06:49 51°31.121 3°6.993 53 12.2 49 22.4
2005-01-13 09:07:49 51°31.241 3°7.247 58.9 11.8 42 22.6
2005-01-13 09:08:49 51°31.358 3°7.508 55.7 12 50 22.9
2005-01-13 09:09:49 51°31.476 3°7.767 49.1 11.7 40 22.7
2005-01-13 09:10:49 51°31.596 3°8.026 51.9 11.9 43 22.2
2005-01-13 09:11:49 51°31.71 3°8.287 57.9 11.7 56 22.7
2005-01-13 09:12:49 51°31.826 3°8.556 54.7 12.8 54 22.9
2005-01-13 09:13:49 51°31.942 3°8.82 58 11.6 63 22.9
2005-01-13 09:14:49 51°32.06 3°9.079 56.8 11.7 61 23
2005-01-13 09:15:49 51°32.177 3°9.339 60.2 12.3 60 23.1
2005-01-13 09:16:49 51°32.289 3°9.599 55.1 12.7 58 24
2005-01-13 09:17:49 51°32.406 3°9.858 59.5 12.4 59 24.4
2005-01-13 09:18:49 51°32.521 3°10.112 54.7 11.7 58 24.3
2005-01-13 09:19:49 51°32.639 3°10.365 54.5 11.6 52 24.8
2005-01-13 09:20:49 51°32.753 3°10.621 55.6 11.6 58 25.4
2005-01-13 09:21:49 51°32.867 3°10.881 54 11.7 49 25.6
2005-01-13 09:22:49 51°32.983 3°11.137 55.2 12.1 54 25.5
2005-01-13 09:23:49 51°33.101 3°11.39 52.9 11.9 48 26.5
2005-01-13 09:24:49 51°33.218 3°11.645 53.2 12.3 48 27.2
2005-01-13 09:25:49 51°33.341 3°11.904 58.1 12.6 51 27.4
2005-01-13 09:26:49 51°33.459 3°12.168 56.2 12 51 27.4
2005-01-13 09:27:49 51°33.577 3°12.426 54.9 12.4 52 27.7
2005-01-13 09:28:49 51°33.692 3°12.681 56.5 11.9 57 28
2005-01-13 09:29:49 51°33.811 3°12.941 56.4 13.2 57 27.3
2005-01-13 09:30:49 51°33.931 3°13.198 53.7 12 50 27.3
2005-01-13 09:31:49 51°34.042 3°13.456 58 12 58 28.1
2005-01-13 09:32:49 51°34.158 3°13.707 55.3 11.8 56 29
2005-01-13 09:33:49 51°34.272 3°13.955 52.2 11.6 56 29.1
2005-01-13 09:34:49 51°34.386 3°14.217 56.2 11.7 40 27.4
2005-01-13 09:35:49 51°34.501 3°14.469 59.8 11.9 62 28.8
2005-01-13 09:36:49 51°34.621 3°14.72 52.9 12.1 49 30
2005-01-13 09:37:49 51°34.743 3°14.976 55.7 11.3 56 31.2
2005-01-13 09:38:49 51°34.86 3°15.239 54 11.9 47 31.7
2005-01-13 09:39:49 51°34.981 3°15.498 54.6 12.2 56 32
2005-01-13 09:40:49 51°35.102 3°15.758 54.5 12.1 50 31.6
2005-01-13 09:41:49 51°35.221 3°16.019 55 12.6 59 32.1
2005-01-13 09:42:49 51°35.34 3°16.274 55.8 11.6 56 31.5
2005-01-13 09:43:49 51°35.455 3°16.534 59.3 12.1 58 32.2
2005-01-13 09:44:49 51°35.566 3°16.785 53.3 12 60 31.9
2005-01-13 09:45:49 51°35.687 3°17.028 58.7 12.4 61 30
2005-01-13 09:46:49 51°35.803 3°17.277 55.2 11.3 57 30.5
2005-01-13 09:47:49 51°35.918 3°17.525 47.9 11.2 40 31.5
2005-01-13 09:48:49 51°36.039 3°17.764 51.8 11.3 54 31.3
2005-01-13 09:49:49 51°36.154 3°18.018 53.4 12.9 50 30.7
2005-01-13 09:50:49 51°36.269 3°18.26 52.9 12 44 30
2005-01-13 09:51:49 51°36.382 3°18.511 57 11.9 59 29.6
2005-01-13 09:52:49 51°36.494 3°18.755 55 10.9 55 29.2
2005-01-13 09:53:49 51°36.61 3°19.002 51.7 11.6 49 29.2
2005-01-13 09:54:49 51°36.723 3°19.248 59.3 11.6 51 28.5
2005-01-13 09:55:49 51°36.838 3°19.482 50.8 11 39 28.1
2005-01-13 09:56:49 51°36.962 3°19.709 51.8 10.9 47 28.7
2005-01-13 09:57:49 51°37.091 3°19.929 45.7 11.8 43 27.9
2005-01-13 09:58:49 51°37.221 3°20.152 51 12 47 28.6
2005-01-13 09:59:49 51°37.359 3°20.374 47 10.7 45 28
2005-01-13 10:00:49 51°37.491 3°20.588 48.2 11.1 47 28.6
2005-01-13 10:01:49 51°37.617 3°20.812 44.5 11.1 42 27.6
2005-01-13 10:02:49 51°37.749 3°21.033 49.6 11.8 56 27.5
2005-01-13 10:03:49 51°37.878 3°21.262 48.5 11.8 47 27.2
2005-01-13 10:04:49 51°38.002 3°21.492 48.9 11.5 46 27.3
2005-01-13 10:05:49 51°38.134 3°21.711 45.5 11.4 43 26.3
2005-01-13 10:06:49 51°38.265 3°21.937 49.4 11.7 44 26.1
2005-01-13 10:07:49 51°38.396 3°22.17 48.2 11.5 49 26.1
2005-01-13 10:08:49 51°38.53 3°22.397 50.8 11.7 49 25.4
2005-01-13 10:09:50 51°38.662 3°22.633 47.6 11.6 42 24.6
2005-01-13 10:10:49 51°38.791 3°22.863 50.8 11.8 56 23.8
2005-01-13 10:11:49 51°38.922 3°23.107 51.4 12.7 53 23.8
2005-01-13 10:12:49 51°39.046 3°23.358 55.2 12.2 56 23.2
2005-01-13 10:13:49 51°39.166 3°23.611 55.1 11.7 57 22.5
2005-01-13 10:14:49 51°39.283 3°23.852 52.2 11.2 49 22.3
2005-01-13 10:15:49 51°39.402 3°24.093 52 11.4 57 21.7
2005-01-13 10:16:49 51°39.524 3°24.33 54.2 12 45 21.3
2005-01-13 10:17:50 51°39.649 3°24.572 54.8 12.2 57 21.1
2005-01-13 10:18:49 51°39.765 3°24.813 51.8 11.1 49 20.5
2005-01-13 10:19:49 51°39.886 3°25.05 52.4 11.2 52 20.5
2005-01-13 10:20:49 51°40.004 3°25.296 56 11 57 19.9
2005-01-13 10:21:49 51°40.122 3°25.541 49.1 11.3 50 19.8
2005-01-13 10:22:49 51°40.24 3°25.789 56.7 12.4 61 19.6
2005-01-13 10:23:49 51°40.359 3°26.044 52.8 11.8 57 19.2
2005-01-13 10:24:49 51°40.48 3°26.288 50.5 11.9 45 18.1
2005-01-13 10:25:49 51°40.608 3°26.523 49 11.8 49 17.1
2005-01-13 10:26:49 51°40.742 3°26.748 45.7 11.2 45 17.9
2005-01-13 10:27:49 51°40.888 3°26.953 40.7 11.7 41 17.3
2005-01-13 10:28:49 51°41.046 3°27.135 39 12 41 18.3
2005-01-13 10:29:49 51°41.206 3°27.319 37.2 12 38 17.9
2005-01-13 10:30:49 51°41.368 3°27.501 37 12.1 35 17.2
2005-01-13 10:31:49 51°41.527 3°27.684 38 12.1 33 16.8
2005-01-13 10:32:49 51°41.688 3°27.858 32.8 11.1 26 15.6
2005-01-13 10:33:49 51°41.854 3°28.029 34.9 12.9 32 14.4
2005-01-13 10:34:49 51°42.019 3°28.198 37.5 12.4 34 12.6
2005-01-13 10:35:50 51°42.179 3°28.367 34.6 11 31 12.4
2005-01-13 10:36:50 51°42.337 3°28.527 31 11.8 33 51.7
2005-01-13 10:37:49 51°42.489 3°28.68 33.3 11.5 35 13.9
2005-01-13 10:38:49 51°42.642 3°28.837 35.1 11.1 34 15.9
2005-01-13 10:39:49 51°42.796 3°28.995 40.8 11.6 42 15.6
2005-01-13 10:40:49 51°42.951 3°29.15 35.3 11.1 37 16.5
2005-01-13 10:41:49 51°43.094 3°29.331 42 11.4 53 16
2005-01-13 10:42:49 51°43.228 3°29.523 38.1 11.1 36 16.8
2005-01-13 10:43:49 51°43.373 3°29.705 37.7 11.3 35 17
2005-01-13 10:44:49 51°43.525 3°29.883 38.3 11.3 28 17.9
2005-01-13 10:45:49 51°43.676 3°30.056 38 11.4 37 20
2005-01-13 10:46:49 51°43.823 3°30.238 36.2 10.4 28 18.5
2005-01-13 10:47:49 51°43.971 3°30.421 39.3 11.2 39 18.6
2005-01-13 10:48:49 51°44.12 3°30.6 38.3 10.9 25 20.1
2005-01-13 10:49:49 51°44.265 3°30.786 38.4 10.4 36 19.7
2005-01-13 10:50:49 51°44.403 3°30.987 43.5 10.6 52 39.8
2005-01-13 10:51:49 51°44.523 3°31.218 57 11.7 47 20.1
2005-01-13 10:52:49 51°44.625 3°31.474 61.9 12.2 62 20.3
2005-01-13 10:53:49 51°44.695 3°31.758 70.7 12.1 74 19.7
2005-01-13 10:54:49 51°44.754 3°32.055 70.1 12.2 72 16.7
2005-01-13 10:55:49 51°44.816 3°32.349 66.3 11.5 62 17.2
2005-01-13 10:56:49 51°44.874 3°32.65 71.4 12.3 74 14.2
2005-01-13 10:57:49 51°44.897 3°32.968 79.2 12.2 73 12.4
2005-01-13 10:58:49 51°44.943 3°33.281 73.5 11.9 78 11.9
2005-01-13 10:59:49 51°44.984 3°33.592 74.7 11.4 75 12.2
2005-01-13 11:00:49 51°45.03 3°33.907 79 12.6 74 12.3
2005-01-13 11:01:49 51°45.082 3°34.222 72 12.4 67 12.7
2005-01-13 11:02:49 51°45.115 3°34.549 82 12.7 82 13.4
2005-01-13 11:03:50 51°45.127 3°34.891 83 12.8 90 13.6
2005-01-13 11:04:49 51°45.14 3°35.216 87.4 12.9 79 13.1
2005-01-13 11:05:49 51°45.155 3°35.549 80.2 12.3 82 12.3
2005-01-13 11:06:49 51°45.242 3°35.791 47 7.7 37 11.6
2005-01-13 11:07:50 51°45.289 3°35.855 32.4 1.8 35 11.9
2005-01-13 11:08:49 51°45.285 3°35.856 15.2 0.9 184 12.1
2005-01-13 11:09:49 51°45.266 3°35.853 14.5 1.4 191 11.8
2005-01-13 11:10:49 51°45.242 3°35.849 25.6 1.7 174 12.3
2005-01-13 11:11:49 51°45.216 3°35.846 35.1 1.5 216 12.6
2005-01-13 11:12:49 51°45.188 3°35.838 33.8 1.8 184 12.2
2005-01-13 11:13:49 51°45.159 3°35.83 35.2 1.6 192 11.7
2005-01-13 11:14:49 51°45.133 3°35.827 32.2 1.3 202 11.2
2005-01-13 11:15:49 51°45.144 3°35.859 37.9 2.9 47 11.1
2005-01-13 11:16:49 51°45.189 3°35.932 42.3 4.6 55 11.7
2005-01-13 11:17:49 51°45.227 3°36.022 52.1 3.9 65 12
2005-01-13 11:18:49 51°45.253 3°36.098 48.5 2.9 44 11.9
2005-01-13 11:19:49 51°45.281 3°36.16 52.9 2.9 62 11.5
2005-01-13 11:20:49 51°45.298 3°36.242 59.4 3.3 63 11
2005-01-13 11:21:49 51°45.32 3°36.307 47.4 2.8 74 11.2
2005-01-13 11:22:49 51°45.335 3°36.357 46.4 2 70 10.8
2005-01-13 11:23:49 51°45.353 3°36.413 52.9 2.8 66 11.2
2005-01-13 11:24:49 51°45.371 3°36.489 59.5 3.2 78 11
2005-01-13 11:25:49 51°45.389 3°36.557 51.9 2.4 48 10.8
2005-01-13 11:26:49 51°45.408 3°36.611 43.7 2.4 61 11.3
2005-01-13 11:27:49 51°45.428 3°36.663 46.8 2.9 87 11
2005-01-13 11:28:49 51°45.447 3°36.716 45.8 2.4 61 10.8
2005-01-13 11:29:49 51°45.468 3°36.764 41.3 2.4 71 10.8
2005-01-13 11:30:49 51°45.487 3°36.813 47.7 2.8 84 11.3
2005-01-13 11:31:49 51°45.496 3°36.879 61.4 3.2 98 10.5
2005-01-13 11:32:50 51°45.505 3°36.948 58.3 2.9 88 11.3
2005-01-13 11:33:49 51°45.521 3°37.007 48.2 2.4 57 11
2005-01-13 11:34:49 51°45.537 3°37.062 48.9 2.3 64 11.2
2005-01-13 11:35:49 51°45.555 3°37.118 51.5 3 83 10.8
2005-01-13 11:36:50 51°45.573 3°37.177 48.3 2.3 55 11.6
2005-01-13 11:37:49 51°45.593 3°37.23 47.3 2.4 61 10.8
2005-01-13 11:38:49 51°45.611 3°37.286 47.6 2.4 61 11.5
2005-01-13 11:39:49 51°45.633 3°37.341 45 2.5 37 10.5
2005-01-13 11:40:49 51°45.655 3°37.401 48.7 2.8 69 10.5
2005-01-13 11:41:49 51°45.676 3°37.465 54 2.8 64 9.8
2005-01-13 11:42:49 51°45.694 3°37.537 56.6 2.8 65 10.6
2005-01-13 11:43:50 51°45.711 3°37.609 54.4 3.1 74 10.9
2005-01-13 11:44:49 51°45.736 3°37.664 38.6 2.7 54 10.2
2005-01-13 11:45:49 51°45.768 3°37.707 35.4 2.5 46 10.9
2005-01-13 11:46:49 51°45.798 3°37.756 44.1 2.7 56 10.3
2005-01-13 11:47:50 51°45.821 3°37.819 47.9 2.6 54 10.7
2005-01-13 11:48:49 51°45.845 3°37.88 49.1 2.7 48 10.8
2005-01-13 11:49:49 51°45.867 3°37.947 53.8 2.8 64 11
2005-01-13 11:50:49 51°45.887 3°38.02 52.7 3 63 10.5
2005-01-13 11:51:49 51°45.913 3°38.088 49.2 3 59 10.5
2005-01-13 11:52:49 51°45.942 3°38.145 40.2 2.7 52 10.8
2005-01-13 11:53:49 51°45.974 3°38.177 20.3 2.4 11 10.8
2005-01-13 11:54:49 51°46.011 3°38.204 34.2 2.8 47 10.5
2005-01-13 11:55:49 51°46.042 3°38.265 41.3 3 39 11.6
2005-01-13 11:56:49 51°46.073 3°38.336 56.5 3.4 71 10.1
2005-01-13 11:57:50 51°46.084 3°38.434 69.3 3.9 93 10.5
2005-01-13 11:58:49 51°46.066 3°38.516 104.8 3.5 140 10.5
2005-01-13 11:59:49 51°46.032 3°38.567 117.4 2.7 143 10.6
2005-01-13 12:00:49 51°45.976 3°38.601 167.6 4.5 175 10.7
2005-01-13 12:01:49 51°45.903 3°38.551 233.8 4.8 225 9
2005-01-13 12:02:49 51°45.863 3°38.471 263.6 3.2 234 9.7
2005-01-13 12:03:49 51°45.835 3°38.405 257.1 3.2 231 9.9
2005-01-13 12:04:49 51°45.793 3°38.326 248.6 4.1 230 10
2005-01-13 12:05:49 51°45.749 3°38.235 251.8 4.1 231 9.9
2005-01-13 12:06:49 51°45.704 3°38.158 244.8 3.9 221 9.9
2005-01-13 12:07:49 51°45.661 3°38.085 250.4 3.5 228 9.6
2005-01-13 12:08:49 51°45.623 3°38.018 251.1 3.2 232 9.6
2005-01-13 12:09:49 51°45.586 3°37.957 252 3.2 214 9.2
2005-01-13 12:10:49 51°45.549 3°37.908 250.9 3 221 9.8
2005-01-13 12:11:49 51°45.514 3°37.855 249.7 2.8 228 9
2005-01-13 12:12:49 51°45.479 3°37.806 253.9 2.6 234 9.8
2005-01-13 12:13:49 51°45.449 3°37.755 263 2.3 234 9.8
2005-01-13 12:14:49 51°45.422 3°37.707 268.5 2.2 219 8.7
2005-01-13 12:15:49 51°45.393 3°37.669 253.7 2.2 217 9.4
2005-01-13 12:16:49 51°45.361 3°37.626 256 2.7 224 9.6
2005-01-13 12:17:49 51°45.334 3°37.563 269.2 2.6 236 8.9
2005-01-13 12:18:49 51°45.309 3°37.495 273.1 3.1 246 9.1
2005-01-13 12:19:49 51°45.287 3°37.419 275.3 3.5 240 8.9
2005-01-13 12:20:50 51°45.265 3°37.34 273.6 3 256 9.1
2005-01-13 12:21:49 51°45.244 3°37.27 268.3 3.2 234 9.5
2005-01-13 12:22:49 51°45.214 3°37.205 266.8 2.9 237 9.2
2005-01-13 12:23:49 51°45.189 3°37.141 272.3 3.2 225 8.7
2005-01-13 12:24:49 51°45.166 3°37.077 274.3 2.7 254 9
2005-01-13 12:25:49 51°45.146 3°37.001 276 3 247 8.9
2005-01-13 12:26:49 51°45.124 3°36.923 273.7 3 238 8.4
2005-01-13 12:27:49 51°45.101 3°36.854 272.7 2.3 254 8.9
2005-01-13 12:28:49 51°45.075 3°36.79 267.3 2.7 242 9.4
2005-01-13 12:29:49 51°45.047 3°36.724 262.8 2.9 226 9.1
2005-01-13 12:30:49 51°45.021 3°36.664 266.4 2.8 227 9.2
2005-01-13 12:31:49 51°44.995 3°36.601 271.9 2.9 245 9.4
2005-01-13 12:32:49 51°44.975 3°36.533 277.6 2.2 263 9.4
2005-01-13 12:33:49 51°44.96 3°36.465 279.5 2.1 256 9
2005-01-13 12:34:49 51°44.94 3°36.413 273.2 2.1 232 9.7
2005-01-13 12:35:49 51°44.917 3°36.357 270.8 2.5 237 10.4
2005-01-13 12:36:49 51°44.897 3°36.288 276.6 2.9 256 10
2005-01-13 12:37:49 51°44.888 3°36.216 289.8 2.3 266 10.5
2005-01-13 12:38:49 51°44.871 3°36.137 271 3.9 249 10.7
2005-01-13 12:39:49 51°44.862 3°36.027 288.1 3.7 274 10.4
2005-01-13 12:40:49 51°44.85 3°35.954 277.7 2.5 246 11.4
2005-01-13 12:41:50 51°44.832 3°35.891 274.1 2 228 10.9
2005-01-13 12:42:49 51°44.809 3°35.88 252.8 1.5 176 10.6
2005-01-13 12:43:49 51°44.788 3°35.888 227.3 0.9 180 10.7
2005-01-13 12:44:49 51°44.769 3°35.896 201.9 1.1 172 10.8
2005-01-13 12:45:49 51°44.747 3°35.903 193.6 1.3 161 10.5
2005-01-13 12:46:49 51°44.727 3°35.908 189.4 1.3 171 10.1
2005-01-13 12:47:49 51°44.706 3°35.915 191.3 1.2 204 9.9
2005-01-13 12:48:49 51°44.686 3°35.919 195.8 1.2 167 10.4
2005-01-13 12:49:49 51°44.637 3°35.899 215.8 6.1 211 9.9
2005-01-13 12:50:49 51°44.589 3°35.678 269.2 11.5 261 10
2005-01-13 12:51:49 51°44.536 3°35.347 262.7 12.8 255 45.7
2005-01-13 12:52:50 51°44.48 3°34.999 263.1 13.4 257 11.1
2005-01-13 12:53:49 51°44.424 3°34.659 263.6 13.2 257 11.1
2005-01-13 12:54:49 51°44.368 3°34.319 263.7 13.1 257 11.7
2005-01-13 12:55:49 51°44.314 3°33.98 264.8 12.8 256 12.6
2005-01-13 12:56:50 51°44.25 3°33.635 255.9 13.4 246 14.2
2005-01-13 12:57:49 51°44.117 3°33.346 233.7 14 227 14.3
2005-01-13 12:58:49 51°43.948 3°33.093 229.3 13.7 219 15.5
2005-01-13 12:59:49 51°43.762 3°32.861 221.9 13.9 212 15.4
2005-01-13 13:00:49 51°43.547 3°32.708 202.6 14.3 200 15.2
2005-01-13 13:01:49 51°43.317 3°32.596 199.3 14.1 195 14.4
2005-01-13 13:02:49 51°43.078 3°32.568 182.6 13.8 179 24.6
2005-01-13 13:03:49 51°42.834 3°32.577 181.2 13.8 177 12.7
2005-01-13 13:04:49 51°42.597 3°32.651 160.2 14.2 159 13.2
2005-01-13 13:05:49 51°42.374 3°32.826 153.2 15.7 152 13.7
2005-01-13 13:06:49 51°42.147 3°32.991 159.8 15.5 157 12.8
2005-01-13 13:07:49 51°41.925 3°33.164 158.6 15.2 154 11.7
2005-01-13 13:08:49 51°41.707 3°33.34 159.6 15.2 154 12.9
2005-01-13 13:09:49 51°41.483 3°33.496 161.9 14.6 163 14
2005-01-13 13:10:49 51°41.265 3°33.657 160.6 14 153 13.8
2005-01-13 13:11:49 51°41.044 3°33.818 161.7 14.2 155 13.8
2005-01-13 13:12:49 51°40.821 3°33.972 160.8 14.7 160 13.5
2005-01-13 13:13:49 51°40.595 3°34.095 172.4 13.9 166 13.9
2005-01-13 13:14:49 51°40.361 3°34.112 195.8 13.7 198 14
2005-01-13 13:15:50 51°40.192 3°33.905 238.5 12.3 230 14.6
2005-01-13 13:16:49 51°40.055 3°33.655 232.9 12.6 228 15
2005-01-13 13:17:49 51°39.911 3°33.408 235.3 12.6 225 13.9
2005-01-13 13:18:49 51°39.775 3°33.163 236.1 12.2 233 13.2
2005-01-13 13:19:49 51°39.66 3°32.909 241.9 11.9 237 12.8
2005-01-13 13:20:49 51°39.562 3°32.64 250.1 11.2 244 15.7
2005-01-13 13:21:49 51°39.479 3°32.355 251 11.7 246 17.4
2005-01-13 13:22:49 51°39.393 3°32.068 251.3 11.9 246 19.4
2005-01-13 13:23:49 51°39.31 3°31.78 249.3 12.3 247 18.2
2005-01-13 13:24:49 51°39.216 3°31.495 244.9 12 239 18.4
2005-01-13 13:25:49 51°39.112 3°31.219 242.5 11.7 238 16.5
2005-01-13 13:26:49 51°38.969 3°30.996 219.9 12.4 211 14.8
2005-01-13 13:27:49 51°38.785 3°30.836 215.5 12.7 215 13.6
2005-01-13 13:28:49 51°38.602 3°30.679 215.9 13.1 211 12.1
2005-01-13 13:29:49 51°38.42 3°30.522 214.1 12.5 210 11.9
2005-01-13 13:30:49 51°38.234 3°30.362 215.6 12.9 206 12.5
2005-01-13 13:31:49 51°38.051 3°30.203 215.1 12.9 205 11.8
2005-01-13 13:32:49 51°37.865 3°30.045 214.8 12.7 203 12.5
2005-01-13 13:33:49 51°37.692 3°29.849 226.2 12.3 215 12.2
2005-01-13 13:34:49 51°37.535 3°29.635 230.2 12 218 11.9
2005-01-13 13:35:49 51°37.391 3°29.433 230 9.2 220 13.2
2005-01-13 13:36:49 51°37.329 3°29.348 244.7 2.9 224 13.5
2005-01-13 13:37:49 51°37.301 3°29.328 246.9 1.6 174 13.3
2005-01-13 13:38:49 51°37.284 3°29.343 249.6 1.2 128 13.6
2005-01-13 13:39:50 51°37.269 3°29.379 238.2 1.3 142 13.6
2005-01-13 13:40:49 51°37.232 3°29.37 233.5 3.1 206 13.4
2005-01-13 13:41:49 51°37.178 3°29.316 237.8 4 218 13.8
2005-01-13 13:42:49 51°37.124 3°29.255 240.6 3.7 212 13.9
2005-01-13 13:43:49 51°37.079 3°29.199 243.1 3.5 218 13.8
2005-01-13 13:44:49 51°37.035 3°29.151 239.2 3 211 13.6
2005-01-13 13:45:49 51°36.998 3°29.121 250.5 1.7 221 13.2
2005-01-13 13:46:49 51°36.979 3°29.088 267.1 1.8 249 12.2
2005-01-13 13:47:49 51°36.971 3°29.036 272.1 2.4 252 12.2
2005-01-13 13:48:49 51°36.958 3°28.968 262.4 3.2 231 12.1
2005-01-13 13:49:49 51°36.94 3°28.904 269 2.5 240 12.1
2005-01-13 13:50:49 51°36.929 3°28.834 268.4 2.5 267 12.8
2005-01-13 13:51:49 51°36.908 3°28.774 259.5 2.7 242 12.5
2005-01-13 13:52:49 51°36.887 3°28.715 261.2 2.9 234 11.7
2005-01-13 13:53:50 51°36.863 3°28.652 259.3 2.6 235 11.9
2005-01-13 13:54:50 51°36.839 3°28.59 259.1 3 235 11.8
2005-01-13 13:55:50 51°36.818 3°28.512 260.3 3.2 252 11.2
2005-01-13 13:56:50 51°36.796 3°28.439 260.7 3 252 11.3
2005-01-13 13:57:49 51°36.771 3°28.364 259.3 3.2 237 11.4
2005-01-13 13:58:50 51°36.748 3°28.289 260.1 3 242 11.1
2005-01-13 13:59:50 51°36.722 3°28.223 259.1 2.8 238 11.6
2005-01-13 14:00:49 51°36.699 3°28.18 258.1 2.4 232 12.1
2005-01-13 14:01:50 51°36.679 3°28.122 262.2 2.7 241 11.5
2005-01-13 14:02:50 51°36.658 3°28.07 258.3 2.3 234 11.7
2005-01-13 14:03:49 51°36.642 3°28.019 261.6 2.3 245 12
2005-01-13 14:04:49 51°36.623 3°27.964 257.4 2.4 230 11.9
2005-01-13 14:05:50 51°36.602 3°27.909 260.7 2.5 248 13.5
2005-01-13 14:06:49 51°36.589 3°27.848 265.2 2.2 250 13.6
2005-01-13 14:07:50 51°36.574 3°27.786 264.4 2.6 268 13.7
2005-01-13 14:08:50 51°36.563 3°27.718 266.3 2.3 262 13.7
2005-01-13 14:09:50 51°36.55 3°27.652 265.5 2.7 272 13.3
2005-01-13 14:10:50 51°36.539 3°27.584 266.8 2.4 262 14
2005-01-13 14:11:49 51°36.527 3°27.519 264.8 2.5 245 13.6
2005-01-13 14:12:50 51°36.516 3°27.454 265.3 2.7 256 14
2005-01-13 14:13:50 51°36.505 3°27.393 263.3 2.3 253 13.8
2005-01-13 14:14:50 51°36.494 3°27.344 265 1.6 236 13.9
2005-01-13 14:15:50 51°36.489 3°27.288 272 2.5 271 14.4
2005-01-13 14:16:50 51°36.504 3°27.221 287.1 2.9 291 14.2
2005-01-13 14:17:49 51°36.523 3°27.155 287 3 304 14.2
2005-01-13 14:18:50 51°36.556 3°27.088 301 3.5 310 13.4
2005-01-13 14:19:50 51°36.599 3°27.057 313.5 1.9 6 13.5
2005-01-13 14:20:50 51°36.622 3°27.081 315.6 1.6 55 13.1
2005-01-13 14:21:50 51°36.634 3°27.128 315.4 1.8 85 12.8
2005-01-13 14:22:50 51°36.644 3°27.182 311.8 2 61 12.6
2005-01-13 14:23:49 51°36.652 3°27.178 263.9 1.4 282 12.6
2005-01-13 14:24:49 51°36.632 3°27.112 260.5 3.3 238 13
2005-01-13 14:25:50 51°36.627 3°27.034 271.1 2.9 268 12.8
2005-01-13 14:26:49 51°36.619 3°26.962 258.5 3.1 235 13
2005-01-13 14:27:49 51°36.6 3°26.889 256.2 2.8 246 13.8
2005-01-13 14:28:50 51°36.583 3°26.838 257.8 2 253 14.5
2005-01-13 14:29:50 51°36.567 3°26.784 255.8 2.5 232 14.5
2005-01-13 14:30:49 51°36.555 3°26.732 260.5 1.8 255 14
2005-01-13 14:31:49 51°36.542 3°26.682 257.8 2.2 243 13.7
2005-01-13 14:32:49 51°36.531 3°26.627 262 2.3 260 14.6
2005-01-13 14:33:49 51°36.518 3°26.562 259.2 2.4 255 14
2005-01-13 14:34:49 51°36.505 3°26.495 260.1 2.5 250 13.4
2005-01-13 14:35:49 51°36.49 3°26.425 260.9 2.7 256 14.1
2005-01-13 14:36:50 51°36.478 3°26.354 261.2 2.7 271 14.4
2005-01-13 14:37:49 51°36.466 3°26.285 260.7 2.8 255 14.5
2005-01-13 14:38:50 51°36.453 3°26.211 259.5 2.9 263 13
2005-01-13 14:39:50 51°36.442 3°26.141 259.8 3 256 14.7
2005-01-13 14:40:49 51°36.432 3°26.071 259.4 2.8 249 14.6
2005-01-13 14:41:50 51°36.419 3°26.006 258.5 2.4 256 13.8
2005-01-13 14:42:49 51°36.409 3°25.947 259.1 2.1 261 13.7
2005-01-13 14:43:49 51°36.397 3°25.882 258.6 2.8 261 13.4
2005-01-13 14:44:49 51°36.385 3°25.813 260.3 1.8 256 12.8
2005-01-13 14:45:49 51°36.376 3°25.755 262.8 2.6 255 13.8
2005-01-13 14:46:49 51°36.369 3°25.683 259.8 2.9 273 13.7
2005-01-13 14:47:49 51°36.36 3°25.616 260.7 2.8 242 14.6
2005-01-13 14:48:49 51°36.352 3°25.548 259.8 2.4 257 13
2005-01-13 14:49:49 51°36.342 3°25.48 260.8 2.9 263 14.7
2005-01-13 14:50:50 51°36.333 3°25.405 261.2 2.6 255 14
2005-01-13 14:51:49 51°36.325 3°25.332 262.7 2.7 263 14
2005-01-13 14:52:50 51°36.321 3°25.269 261.3 2.4 256 15
2005-01-13 14:53:50 51°36.31 3°25.2 254.9 2.9 265 14.1
2005-01-13 14:54:49 51°36.292 3°25.143 249.7 2.7 233 12.5
2005-01-13 14:55:49 51°36.276 3°25.076 254 2.9 253 14.7
2005-01-13 14:56:50 51°36.258 3°25.009 252.4 2.7 242 15.4
2005-01-13 14:57:49 51°36.241 3°24.939 254.2 3 254 15.7
2005-01-13 14:58:49 51°36.226 3°24.859 255.2 3.3 258 15.4
2005-01-13 14:59:49 51°36.208 3°24.776 254.9 3.4 261 14.6
2005-01-13 15:00:50 51°36.192 3°24.701 253.6 2.9 254 14.5
2005-01-13 15:01:49 51°36.177 3°24.628 256.5 3 251 14.8
2005-01-13 15:02:49 51°36.175 3°24.536 267 3.6 281 14.8
2005-01-13 15:03:50 51°36.183 3°24.445 275.4 3.5 273 15.4
2005-01-13 15:04:50 51°36.197 3°24.36 272.9 3 278 15.3
2005-01-13 15:05:49 51°36.193 3°24.328 250 0.8 288 15.5
2005-01-13 15:06:49 51°36.189 3°24.337 242.2 0.8 93 15.6
2005-01-13 15:07:50 51°36.192 3°24.37 233.4 1.3 87 15.6
2005-01-13 15:08:49 51°36.195 3°24.41 225.9 1.7 83 15.2
2005-01-13 15:09:49 51°36.202 3°24.455 216.5 2.1 82 15.4
2005-01-13 15:10:50 51°36.213 3°24.502 204.2 1.7 70 15.3
2005-01-13 15:11:49 51°36.22 3°24.547 199.5 2.1 82 14.9
2005-01-13 15:12:49 51°36.228 3°24.593 199.5 1.5 74 15.2
2005-01-13 15:13:49 51°36.235 3°24.636 204.6 1.8 98 15.3
2005-01-13 15:14:50 51°36.201 3°24.588 248.7 5.2 240 14.6
2005-01-13 15:15:49 51°36.156 3°24.348 251.1 11.4 249 15.1
2005-01-13 15:16:49 51°36.093 3°24.059 252.6 11.5 249 15
2005-01-13 15:17:49 51°36.034 3°23.769 253.9 11.7 253 15
2005-01-13 15:18:50 51°35.972 3°23.472 253.3 11 253 14.3
2005-01-13 15:19:50 51°35.915 3°23.177 253.3 11.6 256 14.5
2005-01-13 15:20:49 51°35.857 3°22.884 253.9 11.7 252 14.9
2005-01-13 15:21:49 51°35.811 3°22.579 259.9 12 260 13.6
2005-01-13 15:22:50 51°35.781 3°22.266 262.8 11.8 263 13.5
2005-01-13 15:23:50 51°35.753 3°21.96 261 11.3 263 13.4
2005-01-13 15:24:50 51°35.725 3°21.663 263 11.5 263 13
2005-01-13 15:25:49 51°35.701 3°21.365 263.1 11.4 263 13.1
2005-01-13 15:26:50 51°35.616 3°21.104 233.6 11.1 231 14.6
2005-01-13 15:27:49 51°35.508 3°20.865 240.3 11.3 236 15.5
2005-01-13 15:28:49 51°35.412 3°20.605 242.2 11.1 240 16.1
2005-01-13 15:29:50 51°35.314 3°20.34 242.3 11.2 238 16.5
2005-01-13 15:30:50 51°35.221 3°20.076 244.2 11.7 242 16.9
2005-01-13 15:31:49 51°35.127 3°19.818 243.1 11.5 241 17.7
2005-01-13 15:32:50 51°35.028 3°19.55 243.4 11.6 240 18.2
2005-01-13 15:33:49 51°34.934 3°19.293 243.5 11.3 236 18.6
2005-01-13 15:34:49 51°34.839 3°19.03 244.6 11.5 245 17.2
2005-01-13 15:35:49 51°34.743 3°18.767 243.8 11.5 242 17
2005-01-13 15:36:50 51°34.644 3°18.502 243 11.3 241 15.9
2005-01-13 15:37:49 51°34.551 3°18.24 243.4 11.5 244 18.2
2005-01-13 15:38:50 51°34.455 3°17.968 244.3 11.5 237 18.3
2005-01-13 15:39:49 51°34.361 3°17.706 244.4 11.4 246 18.5
2005-01-13 15:40:49 51°34.262 3°17.448 242.7 11.1 241 17.8
2005-01-13 15:41:50 51°34.165 3°17.185 245.3 11.2 240 17.9
2005-01-13 15:42:49 51°34.069 3°16.925 243.6 11.6 244 18.6
2005-01-13 15:43:50 51°33.969 3°16.652 241.9 11.6 239 20.2
2005-01-13 15:44:50 51°33.872 3°16.385 243.7 11.7 240 20.4
2005-01-13 15:45:49 51°33.777 3°16.121 244.6 11.3 238 19
2005-01-13 15:46:50 51°33.681 3°15.845 242.5 11.8 238 21.2
2005-01-13 15:47:49 51°33.586 3°15.576 243.1 11.8 240 20.9
2005-01-13 15:48:49 51°33.489 3°15.309 243.6 11.6 244 21.6
2005-01-13 15:49:50 51°33.391 3°15.035 241.6 11.4 239 22.1
2005-01-13 15:50:49 51°33.298 3°14.765 242.4 11.8 235 22.4
2005-01-13 15:51:50 51°33.205 3°14.487 244 11.8 244 22.9
2005-01-13 15:52:50 51°33.111 3°14.214 242.1 11.5 238 22.9
2005-01-13 15:53:50 51°33.017 3°13.936 242.4 12 241 23.4
2005-01-13 15:54:50 51°32.924 3°13.663 243.8 11.5 244 23.6
2005-01-13 15:55:50 51°32.831 3°13.384 242.4 11.8 242 23.9
2005-01-13 15:56:49 51°32.74 3°13.11 243.7 11.8 245 23.8
2005-01-13 15:57:50 51°32.647 3°12.836 245.6 11.5 246 23.3
2005-01-13 15:58:49 51°32.558 3°12.57 243.2 11.6 241 23.6
2005-01-13 15:59:50 51°32.458 3°12.297 239.8 11.5 239 23.8
2005-01-13 16:00:50 51°32.341 3°12.053 234.8 11.6 233 23.7
2005-01-13 16:01:50 51°32.227 3°11.808 236.7 11.4 238 23.6
2005-01-13 16:02:50 51°32.112 3°11.56 236.4 11.5 236 23.6
2005-01-13 16:03:50 51°31.998 3°11.308 236 11.8 235 23.6
2005-01-13 16:04:49 51°31.888 3°11.056 236.3 11.7 233 23.9
2005-01-13 16:05:49 51°31.773 3°10.804 235.1 11.6 233 23.4
2005-01-13 16:06:49 51°31.661 3°10.553 236.2 11.6 237 24.2
2005-01-13 16:07:49 51°31.548 3°10.302 236.1 11.7 230 23.3
2005-01-13 16:08:49 51°31.434 3°10.052 235.1 11.6 227 23.3
2005-01-13 16:09:50 51°31.322 3°9.793 236.6 11.7 236 23.8
2005-01-13 16:10:49 51°31.211 3°9.547 237.1 11.8 237 23.7
2005-01-13 16:11:49 51°31.1 3°9.293 236.9 11.8 236 24.3
2005-01-13 16:12:49 51°30.987 3°9.04 237 11.7 236 25
2005-01-13 16:13:50 51°30.873 3°8.782 237.8 11.6 238 24.6
2005-01-13 16:14:49 51°30.763 3°8.536 236.5 11.3 234 23.8
2005-01-13 16:15:49 51°30.653 3°8.283 235.7 11.7 240 26.2
2005-01-13 16:16:50 51°30.538 3°8.022 236.5 11.7 234 25
2005-01-13 16:17:50 51°30.427 3°7.763 235.4 11.8 236 23.9
2005-01-13 16:18:50 51°30.314 3°7.51 236.1 12 238 25.4
2005-01-13 16:19:50 51°30.202 3°7.255 237 11.7 234 25.3
2005-01-13 16:20:50 51°30.091 3°7.006 237.1 11.7 240 25.5
2005-01-13 16:21:50 51°29.979 3°6.751 237.8 11.6 235 25.7
2005-01-13 16:22:49 51°29.869 3°6.5 235.3 11.9 234 25.3
2005-01-13 16:23:50 51°29.756 3°6.242 236.8 11.5 234 25.7
2005-01-13 16:24:50 51°29.645 3°5.991 235.8 11.7 233 26
2005-01-13 16:25:49 51°29.537 3°5.742 235.9 11.6 237 25.8
2005-01-13 16:26:49 51°29.426 3°5.484 236.4 11.8 236 26
2005-01-13 16:27:50 51°29.314 3°5.226 237.2 11.6 235 26.2
2005-01-13 16:28:49 51°29.202 3°4.967 235.7 11.9 233 26.1
2005-01-13 16:29:49 51°29.091 3°4.707 236.2 11.6 239 26
2005-01-13 16:30:49 51°28.98 3°4.451 235.7 11.4 236 26.2
2005-01-13 16:31:50 51°28.868 3°4.188 237.1 11.7 236 26.4
2005-01-13 16:32:49 51°28.756 3°3.933 236.1 11.7 236 25.9
2005-01-13 16:33:49 51°28.646 3°3.675 237.4 11.9 236 26.5
2005-01-13 16:34:49 51°28.534 3°3.415 237.2 11.9 237 26.3
2005-01-13 16:35:49 51°28.422 3°3.159 235.4 11.9 237 26.4
2005-01-13 16:36:50 51°28.306 3°2.896 237 11.6 234 26.8
2005-01-13 16:37:49 51°28.197 3°2.641 236.9 12.1 236 26.7
2005-01-13 16:38:49 51°28.085 3°2.382 235.6 11.8 234 26.9
2005-01-13 16:39:50 51°27.972 3°2.121 237 11.1 233 26.9
2005-01-13 16:40:50 51°27.863 3°1.865 236.3 11.7 234 26.7
2005-01-13 16:41:50 51°27.754 3°1.611 235.8 11.5 235 26.3
2005-01-13 16:42:49 51°27.647 3°1.359 237 11.6 238 26
2005-01-13 16:43:49 51°27.539 3°1.103 236.2 11.4 238 25.8
2005-01-13 16:44:49 51°27.43 3°0.845 237.3 11.7 235 26.4
2005-01-13 16:45:50 51°27.32 3°0.58 236 12 232 27.3
2005-01-13 16:46:49 51°27.211 3°0.326 235.8 11.6 237 27
2005-01-13 16:47:49 51°27.091 3°0.079 227.4 11.6 228 27
2005-01-13 16:48:49 51°26.947 2°59.866 225.1 11.7 219 26.1
2005-01-13 16:49:49 51°26.804 2°59.648 226.9 12.4 229 27
2005-01-13 16:50:49 51°26.656 2°59.435 224.2 12.2 220 27
2005-01-13 16:51:49 51°26.511 2°59.22 224.7 12 222 26.3
2005-01-13 16:52:49 51°26.366 2°58.999 225.7 11.8 225 27
2005-01-13 16:53:50 51°26.217 2°58.782 224.8 11.9 222 26.3
2005-01-13 16:54:50 51°26.071 2°58.564 226.2 12.1 226 27.1
2005-01-13 16:55:50 51°25.924 2°58.342 225.1 12.2 223 27.6
2005-01-13 16:56:50 51°25.773 2°58.127 225 12.3 223 27.6
2005-01-13 16:57:50 51°25.623 2°57.909 224.2 12.2 219 27.5
2005-01-13 16:58:49 51°25.476 2°57.692 224.2 12 219 26.9
2005-01-13 16:59:49 51°25.313 2°57.497 211.2 12.2 203 27.5
2005-01-13 17:00:49 51°25.11 2°57.432 190.1 12.4 182 26
2005-01-13 17:01:49 51°24.898 2°57.408 190 12.4 186 23.5
2005-01-13 17:02:49 51°24.687 2°57.38 190.4 12.7 183 21.7
2005-01-13 17:03:50 51°24.471 2°57.358 187.9 12.9 181 20.5
2005-01-13 17:04:49 51°24.268 2°57.312 198.1 13.1 199 18.7
2005-01-13 17:05:49 51°24.069 2°57.209 205.4 12.1 202 17.1
2005-01-13 17:06:49 51°23.874 2°57.091 204.6 12.1 203 18.4
2005-01-13 17:07:49 51°23.68 2°56.965 208.3 13 205 18.3
2005-01-13 17:08:49 51°23.499 2°56.795 214.8 12.4 210 20.9
2005-01-13 17:09:49 51°23.318 2°56.62 215.2 12.5 210 20.4
2005-01-13 17:10:49 51°23.138 2°56.447 213.3 12.5 210 20.3
2005-01-13 17:11:50 51°22.947 2°56.286 211.4 12.4 205 20.2
2005-01-13 17:12:49 51°22.762 2°56.128 212.4 12.8 209 20.2
2005-01-13 17:13:49 51°22.574 2°55.969 210 13.6 211 20.2
2005-01-13 17:14:49 51°22.386 2°55.814 212.3 12.6 206 20.5
2005-01-13 17:15:49 51°22.196 2°55.659 212.9 12.4 208 20.2
2005-01-13 17:16:50 51°22.006 2°55.499 213 12.7 211 19.7
2005-01-13 17:17:49 51°21.822 2°55.345 211.9 12.2 207 19.5
2005-01-13 17:18:49 51°21.64 2°55.182 211 12.6 210 19.1
2005-01-13 17:19:49 51°21.457 2°55.017 211.8 12.9 207 19.3
2005-01-13 17:20:50 51°21.272 2°54.849 213.6 13.2 211 18.8
2005-01-13 17:21:49 51°21.093 2°54.682 211.8 13 208 18.7
2005-01-13 17:22:49 51°20.906 2°54.519 212.6 13.2 210 18.2
2005-01-13 17:23:49 51°20.72 2°54.352 212.5 12.8 209 18.3
2005-01-13 17:24:49 51°20.532 2°54.182 214.1 12.7 211 18
2005-01-13 17:25:49 51°20.346 2°54.013 212.3 12.8 211 17.9
2005-01-13 17:26:49 51°20.157 2°53.844 212 13.1 204 17.2
2005-01-13 17:27:49 51°19.973 2°53.672 212.3 12.9 210 16.5
2005-01-13 17:28:49 51°19.786 2°53.501 211.5 13 211 16.1
2005-01-13 17:29:49 51°19.602 2°53.324 214.6 12.8 216 15.8
2005-01-13 17:30:49 51°19.414 2°53.153 211.5 13.3 209 15.2
2005-01-13 17:31:49 51°19.227 2°52.982 213.5 12.5 208 14.6
2005-01-13 17:32:49 51°19.034 2°52.824 207.8 13.2 205 14.2
2005-01-13 17:33:49 51°18.835 2°52.683 207.1 13.1 201 13.6
2005-01-13 17:34:49 51°18.634 2°52.557 202.2 12.6 201 13.2
2005-01-13 17:35:49 51°18.428 2°52.445 200.2 12.9 198 12.8
2005-01-13 17:36:49 51°18.219 2°52.34 196.6 13.4 191 12.3
2005-01-13 17:37:49 51°18.006 2°52.256 191.6 13.2 187 12
2005-01-13 17:38:49 51°17.79 2°52.207 190 12.4 187 11.9
2005-01-13 17:39:49 51°17.569 2°52.172 188.5 13.1 185 12
2005-01-13 17:40:49 51°17.353 2°52.171 178.5 12.8 176 11.7
2005-01-13 17:41:49 51°17.136 2°52.238 166.2 13.1 164 11.6
2005-01-13 17:42:49 51°16.924 2°52.343 165.3 13 157 11
2005-01-13 17:43:49 51°16.719 2°52.478 160.5 14 158 10.7
2005-01-13 17:44:50 51°16.51 2°52.624 158.2 14.3 154 12.7
2005-01-13 17:45:49 51°16.313 2°52.774 159 13.4 155 13.8
2005-01-13 17:46:49 51°16.109 2°52.92 158.3 13.2 155 13.7
2005-01-13 17:47:49 51°15.903 2°53.071 157.4 13.6 158 13.2
2005-01-13 17:48:49 51°15.699 2°53.223 154.1 13.5 153 12.7
2005-01-13 17:49:49 51°15.495 2°53.38 156 13.3 155 12.3
2005-01-13 17:50:49 51°15.3 2°53.566 148 12.9 147 11.2
2005-01-13 17:51:49 51°15.122 2°53.771 143.8 13.4 140 10.7
2005-01-13 17:52:49 51°14.948 2°54.014 140.2 14.4 137 10.4
2005-01-13 17:53:49 51°14.786 2°54.273 133.1 14 130 11.2
2005-01-13 17:54:49 51°14.625 2°54.525 135.8 13.2 134 11.1
2005-01-13 17:55:49 51°14.475 2°54.787 131.3 12.5 127 11.9
2005-01-13 17:56:49 51°14.356 2°55.054 124.9 12.1 123 12
2005-01-13 17:57:50 51°14.242 2°55.293 136.6 10 137 11.9
2005-01-13 17:58:49 51°14.109 2°55.417 155.9 9.1 154 10.6
2005-01-13 17:59:49 51°13.976 2°55.518 157.3 8.8 156 11.5
2005-01-13 18:00:49 51°13.856 2°55.611 156.5 7.5 154 11.5
2005-01-13 18:01:49 51°13.758 2°55.714 139.3 6.9 138 11
2005-01-13 18:02:50 51°13.686 2°55.857 127.7 6.6 125 10.9
2005-01-13 18:03:49 51°13.633 2°55.982 126.7 4.9 124 11.3
2005-01-13 18:04:53 51°13.6 2°56.081 114 2.9 110 11.3
2005-01-13 18:05:54 51°13.592 2°56.106 123.2 0.3 129 -999